Terminal Aerodrome Forecast
Issued by NWS Caribou, ME

Home | Current Version | Previous Version | Text Only | Print | Product List | Glossary On
Versions: 1 2 3 4 5 6 7 8 9 10 11 12 13 14 15
000
FTUS41 KCAR 261134
TAFBGR
TAF
KBGR 261134Z 2612/2712 20010KT P6SM BKN200
     FM270000 VRB03KT P6SM BKN060
     FM270300 VRB03KT P6SM BKN015
     FM270600 VRB03KT 3SM BR OVC008
     FM270900 18006KT 1SM BR OVC005=

USA.gov is the U.S. government's official web portal to all federal, state and local government web resources and services.